createdAt,value
2018-06-20T00:02:08.608Z,18.52
2018-06-20T00:04:37.648Z,18.48
2018-06-20T00:07:06.846Z,18.46
2018-06-20T00:09:36.047Z,18.41
2018-06-20T00:12:05.246Z,18.37
2018-06-20T00:14:34.394Z,18.34
2018-06-20T00:17:03.540Z,18.35
2018-06-20T00:19:32.950Z,18.33
2018-06-20T00:22:02.138Z,18.33
2018-06-20T00:24:31.454Z,18.30
2018-06-20T00:27:00.431Z,18.25
2018-06-20T00:29:29.626Z,18.20
2018-06-20T00:31:58.570Z,18.16
2018-06-20T00:34:28.127Z,18.13
2018-06-20T00:36:57.347Z,18.04
2018-06-20T00:39:26.523Z,17.97
2018-06-20T00:41:55.515Z,17.86
2018-06-20T00:44:24.713Z,17.81
2018-06-20T00:46:53.124Z,17.76
2018-06-20T00:49:21.498Z,17.80
2018-06-20T00:51:50.576Z,17.78
2018-06-20T00:54:19.423Z,17.79
2018-06-20T00:56:47.944Z,17.78
2018-06-20T00:59:16.307Z,17.75
2018-06-20T01:01:44.715Z,17.69
2018-06-20T01:04:13.209Z,17.65
2018-06-20T01:06:41.739Z,17.64
2018-06-20T01:09:11.050Z,17.62
2018-06-20T01:11:39.785Z,17.63
2018-06-20T01:14:08.254Z,17.63
2018-06-20T01:16:36.887Z,17.57
2018-06-20T01:19:05.351Z,17.54
2018-06-20T01:21:34.298Z,17.49
2018-06-20T01:24:02.971Z,17.45
2018-06-20T01:26:31.410Z,17.41
2018-06-20T01:29:00.032Z,17.38
2018-06-20T01:31:28.680Z,17.35
2018-06-20T01:33:57.374Z,17.31
2018-06-20T01:36:25.798Z,17.32
2018-06-20T01:38:54.230Z,17.29
2018-06-20T01:41:22.702Z,17.25
2018-06-20T01:43:51.922Z,17.16
2018-06-20T01:46:20.337Z,17.16
2018-06-20T01:48:48.735Z,17.13
2018-06-20T01:51:17.258Z,17.06
2018-06-20T01:53:45.772Z,17.00
2018-06-20T02:03:01.581Z,16.83
2018-06-20T02:05:30.201Z,16.79
2018-06-20T02:07:58.622Z,16.77
2018-06-20T02:10:27.046Z,16.74
2018-06-20T02:12:55.531Z,16.77
2018-06-20T02:15:24.134Z,16.80
2018-06-20T02:17:52.593Z,16.81
2018-06-20T02:20:20.995Z,16.80
2018-06-20T02:22:49.439Z,16.79
2018-06-20T02:25:17.859Z,16.74
2018-06-20T02:27:46.389Z,16.71
2018-06-20T02:30:14.824Z,16.68
2018-06-20T02:32:43.390Z,16.64
2018-06-20T02:35:12.398Z,16.64
2018-06-20T02:37:41.242Z,16.65
2018-06-20T02:40:09.820Z,16.61
2018-06-20T02:42:38.245Z,16.60
2018-06-20T02:45:06.715Z,16.54
2018-06-20T02:47:44.956Z,16.53
2018-06-20T02:50:14.344Z,16.54
2018-06-20T02:52:43.016Z,16.55
2018-06-20T02:55:11.646Z,16.51
2018-06-20T02:57:40.326Z,16.54
2018-06-20T03:00:08.858Z,16.52
2018-06-20T03:02:37.335Z,16.50
2018-06-20T03:05:05.781Z,16.45
2018-06-20T03:07:34.842Z,16.46
2018-06-20T03:10:03.701Z,16.47
2018-06-20T03:12:32.106Z,16.43
2018-06-20T03:15:00.567Z,16.43
2018-06-20T03:17:29.391Z,16.40
2018-06-20T03:19:57.884Z,16.41
2018-06-20T03:22:26.340Z,16.38
2018-06-20T03:24:55.338Z,16.40
2018-06-20T03:27:24.368Z,16.41
2018-06-20T03:29:52.724Z,16.39
2018-06-20T03:32:21.320Z,16.35
2018-06-20T03:34:49.778Z,16.34
2018-06-20T03:37:18.274Z,16.31
2018-06-20T03:39:47.072Z,16.29
2018-06-20T03:42:15.665Z,16.31
2018-06-20T03:44:44.138Z,16.27
2018-06-20T03:47:13.514Z,16.25
2018-06-20T03:49:42.023Z,16.25
2018-06-20T03:52:10.513Z,16.24
2018-06-20T03:54:38.954Z,16.24
2018-06-20T03:57:07.333Z,16.27
2018-06-20T03:59:35.807Z,16.27
2018-06-20T04:02:04.339Z,16.28
2018-06-20T04:04:32.779Z,16.32
2018-06-20T04:07:01.199Z,16.39
2018-06-20T04:09:29.753Z,16.42
2018-06-20T04:11:59.080Z,16.50
2018-06-20T04:14:27.818Z,16.54
2018-06-20T04:16:56.344Z,16.58
2018-06-20T04:19:24.976Z,16.63
2018-06-20T04:21:53.410Z,16.69
2018-06-20T04:24:22.108Z,16.76
2018-06-20T04:26:50.579Z,16.84
2018-06-20T04:29:19.117Z,16.91
2018-06-20T04:31:48.225Z,16.96
2018-06-20T04:34:16.705Z,17.02
2018-06-20T04:36:45.138Z,17.04
2018-06-20T04:39:13.630Z,17.07
2018-06-20T04:41:42.078Z,17.11
2018-06-20T04:44:10.517Z,17.18
2018-06-20T04:46:38.919Z,17.23
2018-06-20T04:49:07.286Z,17.28
2018-06-20T04:51:35.678Z,17.36
2018-06-20T04:54:04.175Z,17.41
2018-06-20T04:56:33.029Z,17.52
2018-06-20T04:59:01.407Z,17.60
2018-06-20T05:01:29.797Z,17.69
2018-06-20T05:03:58.505Z,17.76
2018-06-20T05:06:27.083Z,17.82
2018-06-20T05:08:55.557Z,17.90
2018-06-20T05:11:24.287Z,17.96
2018-06-20T05:13:52.790Z,18.00
2018-06-20T05:16:21.261Z,18.07
2018-06-20T05:18:49.809Z,18.15
2018-06-20T05:21:18.457Z,18.17
2018-06-20T05:23:47.323Z,18.25
2018-06-20T05:26:15.730Z,18.34
2018-06-20T05:28:44.138Z,18.42
2018-06-20T05:31:12.546Z,18.45
2018-06-20T05:33:41.074Z,18.51
2018-06-20T05:36:09.471Z,18.57
2018-06-20T05:38:37.861Z,18.58
2018-06-20T05:41:06.561Z,18.62
2018-06-20T05:43:35.349Z,18.72
2018-06-20T05:46:03.824Z,18.83
2018-06-20T05:48:32.322Z,18.91
2018-06-20T05:51:00.754Z,18.98
2018-06-20T05:53:29.363Z,19.07
2018-06-20T05:55:57.866Z,19.15
2018-06-20T05:58:26.450Z,19.23
2018-06-20T06:00:55.808Z,19.31
2018-06-20T06:03:24.363Z,19.30
2018-06-20T06:06:09.238Z,19.34
2018-06-20T06:08:37.677Z,19.37
2018-06-20T06:11:06.294Z,19.44
2018-06-20T06:13:34.723Z,19.50
2018-06-20T06:16:03.387Z,19.46
2018-06-20T06:18:32.002Z,19.52
2018-06-20T06:21:00.662Z,19.54
2018-06-20T06:23:29.222Z,19.66
2018-06-20T06:25:58.089Z,19.72
2018-06-20T06:28:27.354Z,19.84
2018-06-20T06:30:55.819Z,19.87
2018-06-20T06:33:24.708Z,19.91
2018-06-20T06:35:53.702Z,19.98
2018-06-20T06:38:22.090Z,20.04
2018-06-20T06:40:50.478Z,20.11
2018-06-20T06:43:19.035Z,20.22
2018-06-20T06:45:48.925Z,20.34
2018-06-20T06:48:17.623Z,20.48
2018-06-20T06:50:46.166Z,20.54
2018-06-20T06:53:14.689Z,20.62
2018-06-20T06:55:43.166Z,20.77
2018-06-20T06:58:11.692Z,20.83
2018-06-20T07:00:40.909Z,20.90
2018-06-20T07:03:09.411Z,21.00
2018-06-20T07:05:37.838Z,21.00
2018-06-20T07:08:06.207Z,21.11
2018-06-20T07:10:34.642Z,21.14
2018-06-20T07:13:03.112Z,21.16
2018-06-20T07:15:31.588Z,21.18
2018-06-20T07:18:00.189Z,21.28
2018-06-20T07:20:28.663Z,21.41
2018-06-20T07:22:57.122Z,21.53
2018-06-20T07:25:25.538Z,21.55
2018-06-20T07:27:53.966Z,21.60
2018-06-20T07:30:22.387Z,21.68
2018-06-20T07:32:50.823Z,21.71
2018-06-20T07:35:20.295Z,21.77
2018-06-20T07:37:48.892Z,21.85
2018-06-20T07:40:17.327Z,22.01
2018-06-20T07:42:45.822Z,22.02
2018-06-20T07:45:14.354Z,22.14
2018-06-20T07:47:42.734Z,22.26
2018-06-20T07:50:11.283Z,22.34
2018-06-20T07:52:39.744Z,22.44
2018-06-20T07:55:08.484Z,22.42
2018-06-20T07:57:36.929Z,22.41
2018-06-20T08:00:14.522Z,22.50
2018-06-20T08:02:59.565Z,22.51
2018-06-20T08:05:33.389Z,22.65
2018-06-20T08:08:07.162Z,22.79
2018-06-20T08:10:40.890Z,22.91
2018-06-20T08:13:14.626Z,22.94
2018-06-20T08:15:48.202Z,22.90
2018-06-20T08:18:22.010Z,22.94
2018-06-20T08:20:50.510Z,23.14
2018-06-20T08:23:19.033Z,23.27
2018-06-20T08:25:47.606Z,23.33
2018-06-20T08:28:16.214Z,23.43
2018-06-20T08:30:44.798Z,23.44
2018-06-20T08:33:13.373Z,23.56
2018-06-20T08:35:41.949Z,23.84
2018-06-20T08:38:10.338Z,24.02
2018-06-20T08:40:38.719Z,24.02
2018-06-20T08:43:07.138Z,24.15
2018-06-20T08:45:35.794Z,24.31
2018-06-20T08:48:04.267Z,24.49
2018-06-20T08:50:32.772Z,24.68
2018-06-20T08:53:01.291Z,24.69
2018-06-20T08:55:29.952Z,24.89
2018-06-20T08:57:59.246Z,25.10
2018-06-20T09:00:33.022Z,25.20
2018-06-20T09:03:01.581Z,25.42
2018-06-20T09:05:35.261Z,25.47
2018-06-20T09:08:09.206Z,25.62
2018-06-20T09:10:42.836Z,25.62
2018-06-20T09:13:16.630Z,25.41
2018-06-20T09:15:50.318Z,25.58
2018-06-20T09:18:23.960Z,25.82
2018-06-20T09:20:52.437Z,25.87
2018-06-20T09:23:20.965Z,25.73
2018-06-20T09:25:49.387Z,26.03
2018-06-20T09:28:17.893Z,26.08
2018-06-20T09:30:46.334Z,26.29
2018-06-20T09:33:15.284Z,26.39
2018-06-20T09:35:43.800Z,26.31
2018-06-20T09:38:12.270Z,26.55
2018-06-20T09:40:42.103Z,26.78
2018-06-20T09:43:10.530Z,27.07
2018-06-20T09:45:39.153Z,27.23
2018-06-20T09:48:07.649Z,27.59
2018-06-20T09:50:41.173Z,28.48
2018-06-20T09:53:09.641Z,28.86
2018-06-20T09:55:38.162Z,29.62
2018-06-20T09:58:06.622Z,29.95
2018-06-20T10:00:40.436Z,29.58
2018-06-20T10:03:14.039Z,30.27
2018-06-20T10:05:47.816Z,30.53
2018-06-20T10:08:21.678Z,30.84
2018-06-20T10:10:55.507Z,31.34
2018-06-20T10:13:26.243Z,31.23
2018-06-20T10:15:54.962Z,31.95
2018-06-20T10:18:24.034Z,32.00
2018-06-20T10:20:52.493Z,32.36
2018-06-20T10:23:20.946Z,33.12
2018-06-20T10:25:49.446Z,33.21
2018-06-20T10:28:17.905Z,33.34
2018-06-20T10:30:46.390Z,33.46
2018-06-20T10:33:14.931Z,33.94
2018-06-20T10:35:43.493Z,33.35
2018-06-20T10:38:11.966Z,33.98
2018-06-20T10:40:40.614Z,33.95
2018-06-20T10:43:09.069Z,34.50
2018-06-20T10:45:42.933Z,34.93
2018-06-20T10:48:13.514Z,35.22
2018-06-20T10:50:42.422Z,34.84
2018-06-20T10:53:11.495Z,34.93
2018-06-20T10:55:40.627Z,35.03
2018-06-20T10:58:14.401Z,35.34
2018-06-20T11:00:48.251Z,35.34
2018-06-20T11:03:21.957Z,35.52
2018-06-20T11:05:55.769Z,36.21
2018-06-20T11:08:29.658Z,35.38
2018-06-20T11:11:03.259Z,35.96
2018-06-20T11:13:31.702Z,36.55
2018-06-20T11:16:00.887Z,36.57
2018-06-20T11:18:29.391Z,37.23
2018-06-20T11:20:58.719Z,37.14
2018-06-20T11:23:27.660Z,37.39
2018-06-20T11:25:56.258Z,37.81
2018-06-20T11:28:24.773Z,37.84
2018-06-20T11:30:53.428Z,38.22
2018-06-20T11:33:21.821Z,38.13
2018-06-20T11:35:50.353Z,37.84
2018-06-20T11:38:18.780Z,37.96
2018-06-20T11:40:47.366Z,38.15
2018-06-20T11:43:15.980Z,38.84
2018-06-20T11:45:50.126Z,38.29
2018-06-20T11:48:18.716Z,38.50
2018-06-20T11:50:47.141Z,39.73
2018-06-20T11:53:15.591Z,39.49
2018-06-20T11:55:45.394Z,40.20
2018-06-20T11:58:19.269Z,40.32
2018-06-20T12:00:52.918Z,40.28
2018-06-20T12:03:26.721Z,40.89
2018-06-20T12:06:00.629Z,40.70
2018-06-20T12:08:34.386Z,41.03
2018-06-20T12:11:08.032Z,40.75
2018-06-20T12:13:41.923Z,41.70
2018-06-20T12:16:15.729Z,41.73
2018-06-20T12:18:49.542Z,42.01
2018-06-20T12:21:23.348Z,42.73
2018-06-20T12:23:58.167Z,42.50
2018-06-20T12:26:32.090Z,41.97
2018-06-20T12:29:05.617Z,42.95
2018-06-20T12:31:39.678Z,42.09
2018-06-20T12:34:13.423Z,42.80
2018-06-20T12:36:47.190Z,42.55
2018-06-20T12:39:14.747Z,42.93
2018-06-20T12:41:48.391Z,42.98
2018-06-20T12:44:22.141Z,44.29
2018-06-20T12:47:05.488Z,44.05
2018-06-20T12:49:36.203Z,44.13
2018-06-20T12:52:04.957Z,44.35
2018-06-20T12:54:33.928Z,43.41
2018-06-20T12:57:02.430Z,43.03
2018-06-20T12:59:30.867Z,44.44
2018-06-20T13:01:59.391Z,44.48
2018-06-20T13:04:27.834Z,44.94
2018-06-20T13:06:56.548Z,45.26
2018-06-20T13:09:25.019Z,45.18
2018-06-20T13:11:53.411Z,45.17
2018-06-20T13:14:21.826Z,45.16
2018-06-20T13:16:50.699Z,44.56
2018-06-20T13:19:19.331Z,45.93
2018-06-20T13:21:48.043Z,46.14
2018-06-20T13:24:16.476Z,45.59
2018-06-20T13:26:45.117Z,46.00
2018-06-20T13:29:13.862Z,46.57
2018-06-20T13:31:47.622Z,46.24
2018-06-20T13:34:21.906Z,45.68
2018-06-20T13:36:55.679Z,45.89
2018-06-20T13:39:29.407Z,46.01
2018-06-20T13:42:02.515Z,46.33
2018-06-20T13:44:31.050Z,47.06
2018-06-20T13:47:04.918Z,46.82
2018-06-20T13:49:33.912Z,46.70
2018-06-20T13:52:02.371Z,46.93
2018-06-20T13:54:31.193Z,46.88
2018-06-20T13:56:59.585Z,46.48
2018-06-20T13:59:28.596Z,46.44
2018-06-20T14:01:57.126Z,46.12
2018-06-20T14:04:25.525Z,46.21
2018-06-20T14:06:54.083Z,46.75
2018-06-20T14:09:22.497Z,46.06
2018-06-20T14:11:50.959Z,46.20
2018-06-20T14:14:19.394Z,45.75
2018-06-20T14:16:47.864Z,47.08
2018-06-20T14:19:16.508Z,47.16
2018-06-20T14:21:45.038Z,47.01
2018-06-20T14:24:13.578Z,46.86
2018-06-20T14:26:42.271Z,46.91
2018-06-20T14:29:11.258Z,47.54
2018-06-20T14:31:44.750Z,48.80
2018-06-20T14:34:18.537Z,48.57
2018-06-20T14:36:52.062Z,48.22
2018-06-20T14:40:28.667Z,47.82
2018-06-20T14:43:03.568Z,49.04
2018-06-20T14:45:37.262Z,46.86
2018-06-20T14:48:05.636Z,47.60
2018-06-20T14:50:34.164Z,48.13
2018-06-20T14:53:02.638Z,47.21
2018-06-20T14:55:31.161Z,48.27
2018-06-20T14:57:59.769Z,48.29
2018-06-20T15:00:28.358Z,47.83
2018-06-20T15:02:56.831Z,48.54
2018-06-20T15:05:25.415Z,47.35
2018-06-20T15:07:53.827Z,48.92
2018-06-20T15:10:22.618Z,47.91
2018-06-20T15:12:51.258Z,46.58
2018-06-20T15:15:19.697Z,46.09
2018-06-20T15:17:48.157Z,46.72
2018-06-20T15:20:16.668Z,47.85
2018-06-20T15:22:47.579Z,48.18
2018-06-20T15:25:17.254Z,48.45
2018-06-20T15:27:51.039Z,48.04
2018-06-20T15:30:24.711Z,48.30
2018-06-20T15:32:58.436Z,48.10
2018-06-20T15:35:32.246Z,46.67
2018-06-20T15:38:05.697Z,48.09
2018-06-20T15:40:34.098Z,46.72
2018-06-20T15:43:02.571Z,47.11
2018-06-20T15:45:31.083Z,47.52
2018-06-20T15:47:59.716Z,47.82
2018-06-20T15:50:28.218Z,48.51
2018-06-20T15:52:56.618Z,48.39
2018-06-20T15:55:25.111Z,46.38
2018-06-20T15:57:54.799Z,46.27
2018-06-20T16:00:23.333Z,45.77
2018-06-20T16:02:51.786Z,46.02
2018-06-20T16:05:20.273Z,46.40
2018-06-20T16:07:48.907Z,46.35
2018-06-20T16:10:18.740Z,48.04
2018-06-20T16:15:48.972Z,47.22
2018-06-20T16:18:20.985Z,46.98
2018-06-20T16:21:16.021Z,46.60
2018-06-20T16:25:44.080Z,48.10
2018-06-20T16:28:24.446Z,46.86
2018-06-20T16:30:54.241Z,46.40
2018-06-20T16:33:31.645Z,45.99
2018-06-20T16:36:00.068Z,46.90
2018-06-20T16:38:28.718Z,46.24
2018-06-20T16:40:57.307Z,46.39
2018-06-20T16:43:25.710Z,47.30
2018-06-20T16:47:34.907Z,47.09
2018-06-20T16:50:03.333Z,46.21
2018-06-20T16:52:31.850Z,46.24
2018-06-20T16:55:05.667Z,46.53
2018-06-20T16:57:34.148Z,46.08
2018-06-20T17:00:02.699Z,45.21
2018-06-20T17:02:34.609Z,45.40
2018-06-20T17:05:03.162Z,45.68
2018-06-20T17:07:31.759Z,45.31
2018-06-20T17:10:00.251Z,44.13
2018-06-20T17:12:34.058Z,45.06
2018-06-20T17:15:07.770Z,45.59
2018-06-20T17:17:41.619Z,43.79
2018-06-20T17:20:15.415Z,44.66
2018-06-20T17:22:49.295Z,44.46
2018-06-20T17:25:25.300Z,44.81
2018-06-20T17:27:53.723Z,43.85
2018-06-20T17:30:22.129Z,44.50
2018-06-20T17:32:50.693Z,44.66
2018-06-20T17:35:19.336Z,44.60
2018-06-20T17:37:47.779Z,44.43
2018-06-20T17:40:16.615Z,44.52
2018-06-20T17:42:45.133Z,44.20
2018-06-20T17:45:13.808Z,43.97
2018-06-20T17:47:42.443Z,42.89
2018-06-20T17:50:11.279Z,43.08
2018-06-20T17:52:39.731Z,43.81
2018-06-20T17:55:08.519Z,43.26
2018-06-20T17:57:37.347Z,43.58
2018-06-20T18:00:05.858Z,42.16
2018-06-20T18:02:34.305Z,41.75
2018-06-20T18:05:07.937Z,40.34
2018-06-20T18:07:41.971Z,39.36
2018-06-20T18:10:15.779Z,37.61
2018-06-20T18:12:49.520Z,35.27
2018-06-20T18:15:23.447Z,34.02
2018-06-20T18:17:51.881Z,33.13
2018-06-20T18:20:20.335Z,32.37
2018-06-20T18:22:48.825Z,31.93
2018-06-20T18:25:17.340Z,31.42
2018-06-20T18:27:45.814Z,31.06
2018-06-20T18:30:14.438Z,30.84
2018-06-20T18:32:42.838Z,30.63
2018-06-20T18:35:11.423Z,30.46
2018-06-20T18:37:39.996Z,30.25
2018-06-20T18:40:10.214Z,30.15
2018-06-20T18:42:38.862Z,29.94
2018-06-20T18:45:07.558Z,29.84
2018-06-20T18:47:41.402Z,29.72
2018-06-20T18:50:10.446Z,29.63
2018-06-20T18:52:38.902Z,29.48
2018-06-20T18:55:07.436Z,29.35
2018-06-20T18:57:41.306Z,29.25
2018-06-20T19:00:15.118Z,29.14
2018-06-20T19:02:48.716Z,29.05
2018-06-20T19:05:22.626Z,28.92
2018-06-20T19:07:56.482Z,28.83
2018-06-20T19:10:24.970Z,28.72
2018-06-20T19:12:53.589Z,28.60
2018-06-20T19:15:22.027Z,28.46
2018-06-20T19:17:50.491Z,28.34
2018-06-20T19:20:19.030Z,28.20
2018-06-20T19:22:47.526Z,28.08
2018-06-20T19:25:16.106Z,27.85
2018-06-20T19:27:44.847Z,27.67
2018-06-20T19:30:13.466Z,27.53
2018-06-20T19:32:41.874Z,27.40
2018-06-20T19:35:10.278Z,27.24
2018-06-20T19:37:38.959Z,27.12
2018-06-20T19:40:07.476Z,26.92
2018-06-20T19:42:36.126Z,26.74
2018-06-20T19:45:04.743Z,26.65
2018-06-20T19:47:33.211Z,26.50
2018-06-20T19:50:01.650Z,26.47
2018-06-20T19:52:31.054Z,26.37
2018-06-20T19:54:59.522Z,26.22
2018-06-20T19:57:28.107Z,26.13
2018-06-20T19:59:56.641Z,26.06
2018-06-20T20:02:25.178Z,25.93
2018-06-20T20:04:53.578Z,25.81
2018-06-20T20:07:22.074Z,25.73
2018-06-20T20:09:50.570Z,25.64
2018-06-20T20:12:19.030Z,25.64
2018-06-20T20:14:47.622Z,25.71
2018-06-20T20:17:16.075Z,25.58
2018-06-20T20:19:44.570Z,25.42
2018-06-20T20:22:13.191Z,25.28
2018-06-20T20:24:44.574Z,25.16
2018-06-20T20:27:13.552Z,25.05
2018-06-20T20:29:42.008Z,24.95
2018-06-20T20:32:11.670Z,24.84
2018-06-20T20:34:40.087Z,24.76
2018-06-20T20:37:08.488Z,24.66
2018-06-20T20:39:36.906Z,24.66
2018-06-20T20:42:06.804Z,24.56
2018-06-20T20:44:35.269Z,24.53
2018-06-20T20:47:03.754Z,24.50
2018-06-20T20:49:32.400Z,24.47
2018-06-20T20:52:00.806Z,24.40
2018-06-20T20:54:29.277Z,24.30
2018-06-20T20:56:58.842Z,24.26
2018-06-20T20:59:27.239Z,24.18
2018-06-20T21:01:56.147Z,24.10
2018-06-20T21:04:24.623Z,24.00
2018-06-20T21:06:53.240Z,23.95
2018-06-20T21:09:21.665Z,23.89
2018-06-20T21:11:50.198Z,23.82
2018-06-20T21:14:18.731Z,23.76
2018-06-20T21:16:47.267Z,23.71
2018-06-20T21:19:15.731Z,23.64
2018-06-20T21:21:44.231Z,23.61
2018-06-20T21:24:12.787Z,23.55
2018-06-20T21:26:41.341Z,23.51
2018-06-20T21:29:09.862Z,23.49
2018-06-20T21:31:38.322Z,23.46
2018-06-20T21:34:06.813Z,23.41
2018-06-20T21:36:35.294Z,23.37
2018-06-20T21:39:04.158Z,23.29
2018-06-20T21:41:32.567Z,23.20
2018-06-20T21:44:01.038Z,23.18
2018-06-20T21:46:29.829Z,23.11
2018-06-20T21:48:58.380Z,23.07
2018-06-20T21:51:26.852Z,23.02
2018-06-20T21:53:55.318Z,22.98
2018-06-20T21:56:23.773Z,22.99
2018-06-20T21:58:52.158Z,22.95
2018-06-20T22:01:20.593Z,22.93
2018-06-20T22:03:48.998Z,22.92
2018-06-20T22:06:17.465Z,22.86
2018-06-20T22:08:45.958Z,22.86
2018-06-20T22:11:14.630Z,22.83
2018-06-20T22:13:43.131Z,22.80
2018-06-20T22:16:11.594Z,22.75
2018-06-20T22:18:40.075Z,22.72
2018-06-20T22:21:08.539Z,22.68
2018-06-20T22:23:36.938Z,22.57
2018-06-20T22:26:05.325Z,22.48
2018-06-20T22:28:33.991Z,22.41
2018-06-20T22:31:02.563Z,22.36
2018-06-20T22:33:30.999Z,22.33
2018-06-20T22:35:59.458Z,22.29
2018-06-20T22:38:27.978Z,22.20
2018-06-20T22:40:56.406Z,22.10
2018-06-20T22:43:24.878Z,22.06
2018-06-20T22:45:53.267Z,21.99
2018-06-20T22:48:21.726Z,21.98
2018-06-20T22:50:50.142Z,21.96
2018-06-20T22:53:18.596Z,21.94
2018-06-20T22:55:46.991Z,21.95
2018-06-20T22:58:15.602Z,21.96
2018-06-20T23:00:44.102Z,21.94
2018-06-20T23:03:12.547Z,21.91
2018-06-20T23:05:41.070Z,21.83
2018-06-20T23:08:09.497Z,21.83
2018-06-20T23:10:38.119Z,21.67
2018-06-20T23:13:06.482Z,21.56
2018-06-20T23:15:34.951Z,21.48
2018-06-20T23:18:03.750Z,21.44
2018-06-20T23:20:32.344Z,21.41
2018-06-20T23:23:00.786Z,21.39
2018-06-20T23:25:29.456Z,21.38
2018-06-20T23:27:57.985Z,21.31
2018-06-20T23:30:26.471Z,21.25
2018-06-20T23:32:54.914Z,21.21
2018-06-20T23:35:23.326Z,21.20
2018-06-20T23:37:51.788Z,21.14
2018-06-20T23:40:20.279Z,21.07
2018-06-20T23:42:48.752Z,20.99
2018-06-20T23:45:17.246Z,20.99
2018-06-20T23:47:45.718Z,20.97
2018-06-20T23:50:14.256Z,20.92
2018-06-20T23:52:42.709Z,20.88
2018-06-20T23:55:11.170Z,20.83
2018-06-20T23:57:39.641Z,20.79
